Terminal Aerodrome Forecast
Issued by NWS

Home | Current Version | Previous Version | Text Only | Print | Product List | Glossary On
Versions: 1 2 3 4 5 6 7 8 9 10 11 12 13 14 15 16 17 18 19 20 21 22 23
800
FTUS43 KPAH 151508 AAC
TAFCGI
TAF AMD
KCGI 151508Z 1515/1612 23009KT 5SM -SN BR SCT015 OVC025
      TEMPO 1515/1517 1SM -SN BR BKN013 OVC035
     FM151900 31010KT 6SM -SN BR SCT025 BKN035
     FM160000 33011KT P6SM FEW035 BKN150=

USA.gov is the U.S. government's official web portal to all federal, state and local government web resources and services.